createdAt,value
2022-08-17T00:00:34.420Z,94246.53
2022-08-17T00:03:06.645Z,94248.63
2022-08-17T00:05:39.837Z,94230.69
2022-08-17T00:08:08.098Z,94245.47
2022-08-17T00:10:36.825Z,94239.03
2022-08-17T00:13:14.269Z,94252.50
2022-08-17T00:15:44.050Z,94238.34
2022-08-17T00:19:06.183Z,94221.69
2022-08-17T00:21:04.785Z,94248.97
2022-08-17T00:23:39.385Z,94238.97
2022-08-17T00:26:16.094Z,94238.03
2022-08-17T00:29:04.765Z,94242.75
2022-08-17T00:31:33.658Z,94230.78
2022-08-17T00:34:01.681Z,94202.66
2022-08-17T00:36:31.354Z,94226.50
2022-08-17T00:38:59.473Z,94223.28
2022-08-17T00:41:29.587Z,94211.47
2022-08-17T00:44:01.888Z,94215.94
2022-08-17T00:46:32.838Z,94192.28
2022-08-17T00:49:01.504Z,94202.78
2022-08-17T00:51:34.682Z,94182.75
2022-08-17T00:54:08.185Z,94201.16
2022-08-17T00:56:40.939Z,94196.34
2022-08-17T00:59:10.303Z,94197.50
2022-08-17T01:01:39.257Z,94186.13
2022-08-17T01:04:08.683Z,94199.88
2022-08-17T01:06:38.698Z,94196.25
2022-08-17T01:09:08.697Z,94198.75
2022-08-17T01:11:39.530Z,94185.81
2022-08-17T01:14:08.986Z,94169.31
2022-08-17T01:16:38.464Z,94197.50
2022-08-17T01:19:11.757Z,94188.44
2022-08-17T01:21:45.094Z,94192.34
2022-08-17T01:24:14.862Z,94199.38
2022-08-17T01:26:45.946Z,94193.28
2022-08-17T01:29:14.655Z,94187.06
2022-08-17T01:31:47.440Z,94160.53
2022-08-17T01:34:17.720Z,94175.06
2022-08-17T01:36:49.797Z,94166.50
2022-08-17T01:39:26.431Z,94156.66
2022-08-17T01:42:00.614Z,94172.34
2022-08-17T01:44:29.217Z,94141.31
2022-08-17T01:46:58.421Z,94169.53
2022-08-17T01:49:29.280Z,94155.69
2022-08-17T01:51:57.972Z,94162.47
2022-08-17T01:54:29.568Z,94158.25
2022-08-17T01:56:57.637Z,94156.78
2022-08-17T01:59:25.727Z,94167.69
2022-08-17T02:01:53.874Z,94148.38
2022-08-17T02:04:21.915Z,94157.88
2022-08-17T02:06:53.408Z,94159.63
2022-08-17T02:09:25.537Z,94158.69
2022-08-17T02:11:56.558Z,94129.16
2022-08-17T02:14:25.863Z,94133.63
2022-08-17T02:16:56.163Z,94152.81
2022-08-17T02:19:24.694Z,94144.16
2022-08-17T02:21:54.770Z,94157.97
2022-08-17T02:25:00.720Z,94160.59
2022-08-17T02:27:16.598Z,94165.31
2022-08-17T02:29:44.606Z,94156.84
2022-08-17T02:32:20.889Z,94154.19
2022-08-17T02:34:56.213Z,94152.59
2022-08-17T02:37:24.454Z,94140.84
2022-08-17T02:39:52.747Z,94152.59
2022-08-17T02:42:27.805Z,94154.53
2022-08-17T02:44:56.036Z,94153.31
2022-08-17T02:47:24.596Z,94163.22
2022-08-17T02:49:55.548Z,94167.94
2022-08-17T02:52:43.854Z,94155.59
2022-08-17T02:55:17.725Z,94163.59
2022-08-17T02:57:50.095Z,94143.50
2022-08-17T03:00:22.394Z,94156.63
2022-08-17T03:02:51.601Z,94167.34
2022-08-17T03:05:23.093Z,94167.59
2022-08-17T03:07:51.368Z,94158.56
2022-08-17T03:10:20.393Z,94168.31
2022-08-17T03:12:50.424Z,94167.06
2022-08-17T03:15:20.829Z,94169.09
2022-08-17T03:17:49.208Z,94175.03
2022-08-17T03:20:18.373Z,94180.88
2022-08-17T03:22:53.517Z,94175.38
2022-08-17T03:25:27.199Z,94170.34
2022-08-17T03:27:58.394Z,94163.03
2022-08-17T03:30:28.457Z,94180.03
2022-08-17T03:33:00.022Z,94166.78
2022-08-17T03:35:31.245Z,94173.88
2022-08-17T03:38:01.290Z,94183.50
2022-08-17T03:40:34.770Z,94192.06
2022-08-17T03:43:22.058Z,94168.03
2022-08-17T03:46:11.039Z,94188.53
2022-08-17T03:49:12.826Z,94163.88
2022-08-17T03:51:54.784Z,94193.88
2022-08-17T03:54:40.185Z,94191.47
2022-08-17T03:57:10.314Z,94189.88
2022-08-17T03:59:41.979Z,94197.06
2022-08-17T04:02:14.375Z,94182.88
2022-08-17T04:04:42.740Z,94185.19
2022-08-17T04:07:10.972Z,94202.34
2022-08-17T04:09:39.081Z,94195.94
2022-08-17T04:12:07.423Z,94203.03
2022-08-17T04:14:51.951Z,94184.59
2022-08-17T04:17:25.477Z,94218.56
2022-08-17T04:19:54.478Z,94202.44
2022-08-17T04:22:30.930Z,94200.59
2022-08-17T04:25:05.934Z,94218.22
2022-08-17T04:27:34.057Z,94222.19
2022-08-17T04:30:02.303Z,94222.41
2022-08-17T04:33:03.783Z,94218.72
2022-08-17T04:35:22.465Z,94239.53
2022-08-17T04:37:50.698Z,94234.75
2022-08-17T04:40:37.399Z,94214.03
2022-08-17T04:43:07.493Z,94250.28
2022-08-17T04:45:35.660Z,94253.50
2022-08-17T04:48:05.426Z,94249.72
2022-08-17T04:50:34.924Z,94227.28
2022-08-17T04:53:03.317Z,94249.50
2022-08-17T04:55:31.437Z,94254.19
2022-08-17T04:57:59.527Z,94246.63
2022-08-17T05:00:27.707Z,94244.09
2022-08-17T05:02:56.965Z,94255.03
2022-08-17T05:05:28.648Z,94245.91
2022-08-17T05:07:58.686Z,94255.84
2022-08-17T05:10:29.847Z,94238.22
2022-08-17T05:13:01.683Z,94243.69
2022-08-17T05:15:33.142Z,94265.22
2022-08-17T05:18:04.725Z,94264.41
2022-08-17T05:20:34.846Z,94253.88
2022-08-17T05:23:10.747Z,94264.47
2022-08-17T05:25:41.743Z,94267.41
2022-08-17T05:28:10.881Z,94279.53
2022-08-17T05:30:40.455Z,94278.81
2022-08-17T05:33:11.287Z,94249.31
2022-08-17T05:35:44.480Z,94272.53
2022-08-17T05:38:12.553Z,94232.19
2022-08-17T05:40:41.567Z,94289.94
2022-08-17T05:43:11.875Z,94289.78
2022-08-17T05:45:55.849Z,94287.16
2022-08-17T05:48:39.042Z,94277.34
2022-08-17T05:51:24.505Z,94287.59
2022-08-17T05:54:05.178Z,94284.63
2022-08-17T05:56:50.517Z,94274.47
2022-08-17T05:59:30.556Z,94287.41
2022-08-17T06:02:08.266Z,94289.59
2022-08-17T06:04:51.053Z,94303.81
2022-08-17T06:07:26.528Z,94297.41
2022-08-17T06:10:01.613Z,94275.44
2022-08-17T06:12:42.022Z,94286.47
2022-08-17T06:15:26.353Z,94298.53
2022-08-17T06:17:57.382Z,94300.50
2022-08-17T06:20:28.862Z,94294.19
2022-08-17T06:23:06.684Z,94306.25
2022-08-17T06:25:40.018Z,94303.47
2022-08-17T06:28:14.269Z,94282.19
2022-08-17T06:31:00.595Z,94279.91
2022-08-17T06:33:34.341Z,94300.84
2022-08-17T06:36:16.081Z,94310.19
2022-08-17T06:38:58.654Z,94316.69
2022-08-17T06:41:37.997Z,94309.38
2022-08-17T06:44:43.723Z,94309.38
2022-08-17T06:47:09.033Z,94309.19
2022-08-17T06:49:43.579Z,94304.31
2022-08-17T06:52:45.725Z,94309.94
2022-08-17T06:55:17.972Z,94308.00
2022-08-17T06:57:51.112Z,94309.91
2022-08-17T07:00:23.892Z,94296.47
2022-08-17T07:02:58.009Z,94293.09
2022-08-17T07:05:31.817Z,94314.16
2022-08-17T07:08:06.043Z,94309.22
2022-08-17T07:10:42.715Z,94317.59
2022-08-17T07:13:35.581Z,94322.97
2022-08-17T07:16:15.548Z,94331.28
2022-08-17T07:18:44.543Z,94339.00
2022-08-17T07:21:26.918Z,94329.78
2022-08-17T07:24:08.142Z,94338.38
2022-08-17T07:26:38.916Z,94314.25
2022-08-17T07:29:09.441Z,94340.94
2022-08-17T07:31:41.257Z,94338.63
2022-08-17T07:34:14.613Z,94346.88
2022-08-17T07:36:43.606Z,94335.75
2022-08-17T07:39:11.809Z,94322.19
2022-08-17T07:41:57.610Z,94334.44
2022-08-17T07:44:28.062Z,94350.09
2022-08-17T07:47:14.470Z,94347.22
2022-08-17T07:49:46.152Z,94341.72
2022-08-17T07:52:50.439Z,94333.47
2022-08-17T07:55:29.438Z,94338.28
2022-08-17T07:58:00.747Z,94331.38
2022-08-17T08:00:32.180Z,94340.38
2022-08-17T08:03:16.030Z,94320.50
2022-08-17T08:05:53.378Z,94331.63
2022-08-17T08:08:29.879Z,94341.97
2022-08-17T08:11:05.384Z,94340.88
2022-08-17T08:13:36.119Z,94331.31
2022-08-17T08:16:24.474Z,94348.78
2022-08-17T08:18:57.163Z,94343.72
2022-08-17T08:21:36.523Z,94337.03
2022-08-17T08:24:30.040Z,94334.34
2022-08-17T08:27:08.167Z,94329.97
2022-08-17T08:29:47.434Z,94343.19
2022-08-17T08:32:22.167Z,94330.44
2022-08-17T08:35:02.023Z,94319.25
2022-08-17T08:37:43.639Z,94322.66
2022-08-17T08:40:31.373Z,94298.94
2022-08-17T08:43:08.362Z,94330.78
2022-08-17T08:45:47.218Z,94292.00
2022-08-17T08:48:53.667Z,94317.63
2022-08-17T08:51:27.945Z,94311.03
2022-08-17T08:54:03.385Z,94308.13
2022-08-17T08:56:38.474Z,94315.91
2022-08-17T08:59:15.232Z,94303.03
2022-08-17T09:01:58.149Z,94317.97
2022-08-17T09:05:12.412Z,94295.56
2022-08-17T09:07:42.538Z,94317.69
2022-08-17T09:10:22.353Z,94296.06
2022-08-17T09:13:09.247Z,94312.47
2022-08-17T09:15:44.170Z,94318.88
2022-08-17T09:19:02.256Z,94301.72
2022-08-17T09:21:18.190Z,94291.81
2022-08-17T09:23:59.732Z,94293.41
2022-08-17T09:26:32.629Z,94306.25
2022-08-17T09:29:07.275Z,94285.69
2022-08-17T09:31:47.006Z,94317.44
2022-08-17T09:34:36.171Z,94320.34
2022-08-17T09:37:13.912Z,94309.34
2022-08-17T09:39:47.680Z,94316.72
2022-08-17T09:42:22.776Z,94291.66
2022-08-17T09:44:59.448Z,94311.06
2022-08-17T09:47:34.764Z,94297.88
2022-08-17T09:50:11.544Z,94305.53
2022-08-17T09:52:39.669Z,94302.94
2022-08-17T09:55:08.255Z,94283.31
2022-08-17T09:57:52.355Z,94302.09
2022-08-17T10:00:27.058Z,94290.47
2022-08-17T10:03:30.537Z,94300.06
2022-08-17T10:06:07.848Z,94293.72
2022-08-17T10:08:44.338Z,94290.53
2022-08-17T10:11:33.644Z,94286.63
2022-08-17T10:14:35.938Z,94289.94
2022-08-17T10:17:04.158Z,94295.81
2022-08-17T10:19:38.983Z,94275.97
2022-08-17T10:22:39.842Z,94280.44
2022-08-17T10:25:42.553Z,94292.78
2022-08-17T10:28:25.879Z,94272.03
2022-08-17T10:31:30.792Z,94298.03
2022-08-17T10:34:00.289Z,94281.41
2022-08-17T10:36:38.567Z,94277.13
2022-08-17T10:39:22.362Z,94281.22
2022-08-17T10:41:55.222Z,94275.28
2022-08-17T10:44:38.694Z,94280.34
2022-08-17T10:47:11.338Z,94247.22
2022-08-17T10:49:46.602Z,94270.22
2022-08-17T10:52:50.087Z,94267.28
2022-08-17T10:55:21.347Z,94275.56
2022-08-17T10:57:51.583Z,94277.03
2022-08-17T11:01:05.774Z,94257.13
2022-08-17T11:03:34.050Z,94242.66
2022-08-17T11:06:12.712Z,94253.75
2022-08-17T11:09:20.734Z,94252.84
2022-08-17T11:12:09.173Z,94251.03
2022-08-17T11:14:53.931Z,94237.50
2022-08-17T11:17:41.531Z,94229.38
2022-08-17T11:20:22.819Z,94248.66
2022-08-17T11:23:25.997Z,94261.69
2022-08-17T11:25:57.032Z,94257.56
2022-08-17T11:28:34.566Z,94256.19
2022-08-17T11:31:08.276Z,94264.72
2022-08-17T11:34:03.737Z,94257.84
2022-08-17T11:37:04.134Z,94244.47
2022-08-17T11:40:05.517Z,94263.13
2022-08-17T11:42:49.016Z,94237.16
2022-08-17T11:45:48.309Z,94244.78
2022-08-17T11:48:39.059Z,94254.91
2022-08-17T11:51:32.139Z,94243.91
2022-08-17T11:54:31.239Z,94269.56
2022-08-17T11:56:53.814Z,94272.13
2022-08-17T11:59:57.713Z,94288.28
2022-08-17T12:02:49.115Z,94277.63
2022-08-17T12:05:33.350Z,94282.25
2022-08-17T12:08:19.803Z,94283.06
2022-08-17T12:10:58.139Z,94291.44
2022-08-17T12:13:30.583Z,94293.84
2022-08-17T12:16:07.413Z,94268.34
2022-08-17T12:18:39.523Z,94273.72
2022-08-17T12:21:28.055Z,94288.13
2022-08-17T12:24:03.294Z,94280.69
2022-08-17T12:26:33.485Z,94290.00
2022-08-17T12:29:05.659Z,94268.28
2022-08-17T12:31:45.525Z,94284.34
2022-08-17T12:34:19.600Z,94276.19
2022-08-17T12:36:51.218Z,94274.50
2022-08-17T12:39:22.354Z,94259.34
2022-08-17T12:42:01.999Z,94271.38
2022-08-17T12:44:32.596Z,94250.53
2022-08-17T12:47:04.753Z,94249.41
2022-08-17T12:49:37.405Z,94253.94
2022-08-17T12:52:10.259Z,94262.19
2022-08-17T12:54:43.419Z,94264.13
2022-08-17T12:57:15.851Z,94253.28
2022-08-17T12:59:47.284Z,94267.31
2022-08-17T13:02:32.275Z,94265.69
2022-08-17T13:05:03.089Z,94261.56
2022-08-17T13:07:36.313Z,94232.91
2022-08-17T13:10:06.850Z,94235.66
2022-08-17T13:12:36.889Z,94232.69
2022-08-17T13:15:05.566Z,94250.56
2022-08-17T13:17:36.880Z,94260.34
2022-08-17T13:20:15.781Z,94255.16
2022-08-17T13:22:44.522Z,94263.78
2022-08-17T13:25:17.833Z,94254.66
2022-08-17T13:27:49.139Z,94257.56
2022-08-17T13:30:24.073Z,94239.78
2022-08-17T13:32:53.923Z,94252.94
2022-08-17T13:35:42.977Z,94251.22
2022-08-17T13:38:15.809Z,94250.56
2022-08-17T13:40:51.960Z,94254.53
2022-08-17T13:43:40.861Z,94241.72
2022-08-17T13:46:11.438Z,94228.84
2022-08-17T13:48:40.040Z,94236.75
2022-08-17T13:51:28.281Z,94244.53
2022-08-17T13:54:09.557Z,94211.56
2022-08-17T13:56:50.893Z,94219.94
2022-08-17T13:59:53.900Z,94226.50
2022-08-17T14:02:22.263Z,94235.41
2022-08-17T14:04:50.541Z,94208.94
2022-08-17T14:07:30.196Z,94228.06
2022-08-17T14:10:00.806Z,94225.06
2022-08-17T14:12:31.663Z,94221.28
2022-08-17T14:15:00.484Z,94205.94
2022-08-17T14:17:34.961Z,94221.84
2022-08-17T14:20:07.326Z,94218.97
2022-08-17T14:22:40.860Z,94204.69
2022-08-17T14:25:10.670Z,94219.53
2022-08-17T14:27:47.091Z,94211.16
2022-08-17T14:30:23.157Z,94223.38
2022-08-17T14:32:52.195Z,94209.91
2022-08-17T14:35:23.218Z,94232.31
2022-08-17T14:37:53.701Z,94221.28
2022-08-17T14:40:24.570Z,94186.66
2022-08-17T14:42:55.107Z,94215.97
2022-08-17T14:45:32.075Z,94225.28
2022-08-17T14:48:04.168Z,94220.00
2022-08-17T14:50:35.283Z,94226.25
2022-08-17T14:53:06.767Z,94216.63
2022-08-17T14:55:36.222Z,94218.66
2022-08-17T14:58:05.095Z,94204.50
2022-08-17T15:00:33.315Z,94221.13
2022-08-17T15:03:02.500Z,94192.91
2022-08-17T15:05:32.667Z,94211.59
2022-08-17T15:08:01.616Z,94220.69
2022-08-17T15:10:31.778Z,94212.91
2022-08-17T15:13:00.437Z,94223.97
2022-08-17T15:15:29.601Z,94223.84
2022-08-17T15:17:58.155Z,94205.53
2022-08-17T15:20:30.047Z,94219.34
2022-08-17T15:22:59.322Z,94203.13
2022-08-17T15:25:31.895Z,94217.03
2022-08-17T15:28:02.400Z,94222.56
2022-08-17T15:30:34.430Z,94230.16
2022-08-17T15:33:03.717Z,94200.44
2022-08-17T15:35:33.819Z,94203.84
2022-08-17T15:38:10.562Z,94205.84
2022-08-17T15:40:44.321Z,94232.22
2022-08-17T15:43:15.730Z,94228.97
2022-08-17T15:45:44.893Z,94225.41
2022-08-17T15:48:40.795Z,94207.38
2022-08-17T15:51:11.059Z,94218.09
2022-08-17T15:53:40.342Z,94216.72
2022-08-17T15:56:09.723Z,94219.53
2022-08-17T15:58:40.167Z,94203.69
2022-08-17T16:01:14.697Z,94216.31
2022-08-17T16:04:04.235Z,94221.97
2022-08-17T16:06:35.018Z,94217.25
2022-08-17T16:09:03.124Z,94221.50
2022-08-17T16:11:31.266Z,94227.31
2022-08-17T16:14:00.702Z,94207.03
2022-08-17T16:16:31.234Z,94225.97
2022-08-17T16:18:59.447Z,94228.25
2022-08-17T16:21:29.670Z,94228.06
2022-08-17T16:24:02.144Z,94220.53
2022-08-17T16:26:34.981Z,94206.06
2022-08-17T16:29:07.864Z,94227.25
2022-08-17T16:31:39.084Z,94209.03
2022-08-17T16:34:17.527Z,94219.31
2022-08-17T16:36:53.689Z,94227.25
2022-08-17T16:39:23.987Z,94221.53
2022-08-17T16:41:52.013Z,94222.63
2022-08-17T16:44:22.736Z,94233.03
2022-08-17T16:46:51.411Z,94239.63
2022-08-17T16:49:35.384Z,94239.84
2022-08-17T16:52:05.810Z,94224.44
2022-08-17T16:54:35.494Z,94237.94
2022-08-17T16:57:05.223Z,94232.81
2022-08-17T16:59:40.925Z,94225.50
2022-08-17T17:02:14.386Z,94240.38
2022-08-17T17:04:47.524Z,94241.38
2022-08-17T17:07:33.924Z,94234.94
2022-08-17T17:10:06.404Z,94243.09
2022-08-17T17:12:59.694Z,94254.38
2022-08-17T17:15:28.693Z,94250.09
2022-08-17T17:18:06.780Z,94248.25
2022-08-17T17:20:43.813Z,94256.75
2022-08-17T17:23:26.310Z,94263.66
2022-08-17T17:26:04.175Z,94256.25
2022-08-17T17:28:40.596Z,94266.25
2022-08-17T17:31:17.561Z,94274.94
2022-08-17T17:33:50.976Z,94263.91
2022-08-17T17:36:27.166Z,94262.94
2022-08-17T17:39:00.396Z,94275.47
2022-08-17T17:41:42.840Z,94278.00
2022-08-17T17:44:15.223Z,94274.25
2022-08-17T17:46:52.542Z,94273.72
2022-08-17T17:49:22.190Z,94261.41
2022-08-17T17:52:08.588Z,94272.63
2022-08-17T17:54:55.130Z,94290.53
2022-08-17T17:57:31.763Z,94288.28
2022-08-17T18:00:08.162Z,94304.59
2022-08-17T18:02:51.527Z,94278.56
2022-08-17T18:05:35.627Z,94307.47
2022-08-17T18:08:14.343Z,94309.16
2022-08-17T18:10:51.192Z,94276.00
2022-08-17T18:13:27.411Z,94317.56
2022-08-17T18:16:00.731Z,94317.63
2022-08-17T18:18:37.998Z,94312.47
2022-08-17T18:21:14.929Z,94319.22
2022-08-17T18:23:58.819Z,94323.97
2022-08-17T18:26:41.917Z,94328.44
2022-08-17T18:29:30.272Z,94326.31
2022-08-17T18:32:33.211Z,94331.69
2022-08-17T18:35:22.264Z,94324.38
2022-08-17T18:37:51.795Z,94339.28
2022-08-17T18:40:41.287Z,94340.81
2022-08-17T18:43:13.409Z,94344.91
2022-08-17T18:45:45.883Z,94347.53
2022-08-17T18:48:30.274Z,94345.78
2022-08-17T18:51:26.227Z,94349.50
2022-08-17T18:54:19.972Z,94353.19
2022-08-17T18:56:54.056Z,94352.69
2022-08-17T18:59:30.275Z,94352.69
2022-08-17T19:02:34.588Z,94356.47
2022-08-17T19:05:11.184Z,94356.72
2022-08-17T19:07:42.362Z,94362.59
2022-08-17T19:10:23.963Z,94360.97
2022-08-17T19:13:00.712Z,94363.88
2022-08-17T19:15:34.470Z,94363.38
2022-08-17T19:18:09.940Z,94361.00
2022-08-17T19:20:46.879Z,94365.50
2022-08-17T19:23:22.237Z,94361.88
2022-08-17T19:25:52.563Z,94345.94
2022-08-17T19:28:24.968Z,94368.53
2022-08-17T19:30:57.787Z,94344.16
2022-08-17T19:33:26.212Z,94363.53
2022-08-17T19:36:07.034Z,94375.00
2022-08-17T19:38:48.749Z,94369.44
2022-08-17T19:41:23.702Z,94373.22
2022-08-17T19:44:13.957Z,94362.56
2022-08-17T19:46:50.653Z,94373.50
2022-08-17T19:49:41.855Z,94370.56
2022-08-17T19:52:22.048Z,94367.69
2022-08-17T19:54:58.925Z,94369.53
2022-08-17T19:57:38.182Z,94371.94
2022-08-17T20:00:11.419Z,94373.50
2022-08-17T20:02:48.056Z,94375.91
2022-08-17T20:05:21.516Z,94362.38
2022-08-17T20:07:55.690Z,94367.69
2022-08-17T20:10:48.073Z,94342.97
2022-08-17T20:13:33.011Z,94363.16
2022-08-17T20:16:02.098Z,94370.09
2022-08-17T20:18:50.341Z,94366.88
2022-08-17T20:21:22.557Z,94375.91
2022-08-17T20:23:54.823Z,94366.94
2022-08-17T20:26:27.931Z,94377.03
2022-08-17T20:29:36.801Z,94375.94
2022-08-17T20:32:26.727Z,94378.63
2022-08-17T20:35:24.051Z,94381.00
2022-08-17T20:37:56.567Z,94384.72
2022-08-17T20:40:28.316Z,94372.50
2022-08-17T20:42:59.029Z,94364.25
2022-08-17T20:45:53.101Z,94391.09
2022-08-17T20:48:37.858Z,94367.47
2022-08-17T20:51:38.633Z,94386.06
2022-08-17T20:54:28.185Z,94381.81
2022-08-17T20:57:00.498Z,94369.06
2022-08-17T20:59:59.408Z,94395.16
2022-08-17T21:02:30.098Z,94386.09
2022-08-17T21:05:06.961Z,94383.44
2022-08-17T21:07:54.822Z,94378.41
2022-08-17T21:10:37.692Z,94379.47
2022-08-17T21:13:49.658Z,94380.28
2022-08-17T21:16:48.725Z,94384.78
2022-08-17T21:19:31.446Z,94385.03
2022-08-17T21:22:09.503Z,94383.72
2022-08-17T21:24:50.146Z,94369.09
2022-08-17T21:27:32.841Z,94387.69
2022-08-17T21:30:44.451Z,94390.34
2022-08-17T21:33:21.422Z,94398.06
2022-08-17T21:35:54.153Z,94401.78
2022-08-17T21:38:35.549Z,94400.72
2022-08-17T21:41:03.859Z,94407.91
2022-08-17T21:43:36.587Z,94404.69
2022-08-17T21:46:08.308Z,94403.63
2022-08-17T21:48:48.229Z,94403.09
2022-08-17T21:51:21.668Z,94403.88
2022-08-17T21:53:52.908Z,94390.84
2022-08-17T21:56:27.332Z,94410.78
2022-08-17T21:58:59.412Z,94405.72
2022-08-17T22:01:31.270Z,94395.09
2022-08-17T22:04:06.702Z,94407.28
2022-08-17T22:06:38.921Z,94409.63
2022-08-17T22:09:15.908Z,94389.63
2022-08-17T22:11:56.021Z,94402.94
2022-08-17T22:14:27.662Z,94402.44
2022-08-17T22:17:19.508Z,94400.25
2022-08-17T22:19:51.701Z,94403.44
2022-08-17T22:22:29.898Z,94405.25
2022-08-17T22:25:00.666Z,94403.72
2022-08-17T22:27:50.678Z,94397.59
2022-08-17T22:30:27.627Z,94387.22
2022-08-17T22:32:56.119Z,94398.69
2022-08-17T22:35:41.813Z,94381.41
2022-08-17T22:38:43.974Z,94390.47
2022-08-17T22:41:36.526Z,94395.22
2022-08-17T22:44:20.945Z,94393.91
2022-08-17T22:46:54.464Z,94387.75
2022-08-17T22:49:26.808Z,94400.44
2022-08-17T22:52:19.664Z,94391.13
2022-08-17T22:55:09.525Z,94400.13
2022-08-17T22:57:51.906Z,94398.53
2022-08-17T23:00:32.382Z,94400.16
2022-08-17T23:03:13.647Z,94394.84
2022-08-17T23:05:44.998Z,94384.50
2022-08-17T23:08:21.107Z,94364.25
2022-08-17T23:10:50.089Z,94384.94
2022-08-17T23:13:18.085Z,94373.16
2022-08-17T23:15:48.215Z,94390.50
2022-08-17T23:18:17.600Z,94384.91
2022-08-17T23:20:46.364Z,94375.53
2022-08-17T23:23:18.735Z,94376.06
2022-08-17T23:25:49.445Z,94375.09
2022-08-17T23:28:17.498Z,94366.50
2022-08-17T23:30:48.554Z,94377.09
2022-08-17T23:33:21.352Z,94380.22
2022-08-17T23:35:49.655Z,94370.56
2022-08-17T23:38:19.115Z,94374.75
2022-08-17T23:40:47.209Z,94381.31
2022-08-17T23:43:23.777Z,94384.38
2022-08-17T23:45:55.003Z,94388.81
2022-08-17T23:48:32.430Z,94390.66
2022-08-17T23:51:03.936Z,94374.78
2022-08-17T23:53:36.748Z,94374.91
2022-08-17T23:56:09.710Z,94381.50
2022-08-17T23:58:39.354Z,94378.75
